Time;durP1;ratioP1;P1;durP2;ratioP2;P2;SDS_P1;SDS_P2;PMS_P1;PMS_P2;Temp;Humidity;BMP_temperature;BMP_pressure;BME280_temperature;BME280_humidity;BME280_pressure;Samples;Min_cycle;Max_cycle;Signal;HPM_P1;HPM_P2
2021/09/08 00:00:16;;;;;;;14.83;12.83;;;21.60;65.10;;;;;;5116730;28;20454;-76
2021/09/08 00:02:42;;;;;;;12.73;11.43;;;21.70;65.20;;;;;;5116840;27;20428;-76
2021/09/08 00:05:11;;;;;;;15.50;12.40;;;21.60;65.20;;;;;;5116612;28;20438;-76
2021/09/08 00:07:39;;;;;;;13.73;12.40;;;21.60;65.40;;;;;;5116163;28;20981;-76
2021/09/08 00:10:07;;;;;;;15.40;13.73;;;21.60;65.60;;;;;;5116458;28;20486;-76
2021/09/08 00:12:35;;;;;;;14.73;12.77;;;21.50;65.60;;;;;;5116484;28;20538;-76
2021/09/08 00:15:02;;;;;;;14.03;12.60;;;21.50;65.90;;;;;;5116438;28;20438;-76
2021/09/08 00:17:29;;;;;;;14.30;12.47;;;21.50;66.00;;;;;;5116291;28;20858;-76
2021/09/08 00:19:56;;;;;;;13.20;11.60;;;21.50;66.00;;;;;;5116348;28;20487;-76
2021/09/08 00:22:22;;;;;;;12.73;11.47;;;21.50;66.10;;;;;;5116356;28;20430;-76
2021/09/08 00:24:50;;;;;;;15.20;12.40;;;21.50;66.10;;;;;;5116234;28;20450;-76
2021/09/08 00:27:17;;;;;;;13.33;11.93;;;21.40;66.10;;;;;;5116078;28;20470;-76
2021/09/08 00:29:44;;;;;;;16.20;11.93;;;21.50;66.10;;;;;;5116033;28;20867;-76
2021/09/08 00:32:11;;;;;;;14.10;12.57;;;21.40;66.00;;;;;;5115789;28;20441;-76
2021/09/08 00:34:38;;;;;;;14.83;12.50;;;21.40;66.00;;;;;;5116027;28;20435;-76
2021/09/08 00:37:05;;;;;;;12.63;11.37;;;21.40;66.00;;;;;;5115569;28;20938;-76
2021/09/08 00:39:31;;;;;;;13.17;11.47;;;21.40;65.90;;;;;;5115905;28;20453;-76
2021/09/08 00:41:59;;;;;;;14.50;11.43;;;21.40;65.90;;;;;;5115887;28;20439;-76
2021/09/08 00:44:27;;;;;;;12.10;10.90;;;21.40;65.80;;;;;;5115799;28;20446;-76
2021/09/08 00:46:57;;;;;;;13.63;11.50;;;21.40;65.90;;;;;;5115662;28;20443;-76
2021/09/08 00:49:24;;;;;;;15.17;11.70;;;21.40;66.00;;;;;;5115776;28;20450;-76
2021/09/08 00:51:52;;;;;;;13.17;11.67;;;21.40;65.80;;;;;;5115625;28;20482;-76
2021/09/08 00:54:22;;;;;;;14.97;13.37;;;21.40;65.80;;;;;;5115622;28;20447;-76
2021/09/08 00:56:53;;;;;;;12.43;11.20;;;21.30;65.80;;;;;;5115603;28;20434;-76
2021/09/08 00:59:21;;;;;;;14.00;11.60;;;21.30;65.70;;;;;;5115326;28;20911;-76
2021/09/08 01:01:48;;;;;;;14.37;12.37;;;21.30;65.70;;;;;;5115534;28;20842;-76
2021/09/08 01:04:15;;;;;;;13.17;11.77;;;21.30;65.80;;;;;;5115402;28;20450;-76
2021/09/08 01:06:42;;;;;;;13.93;12.43;;;21.20;65.70;;;;;;5115423;28;20473;-76
2021/09/08 01:09:11;;;;;;;14.43;11.77;;;21.20;65.80;;;;;;5114699;28;20459;-76
2021/09/08 01:11:38;;;;;;;13.83;12.43;;;21.10;65.80;;;;;;5115231;28;20478;-76
2021/09/08 01:14:05;;;;;;;12.80;11.50;;;21.20;66.10;;;;;;5114835;28;20957;-76
2021/09/08 01:16:33;;;;;;;14.37;12.20;;;21.10;66.20;;;;;;5115173;28;20446;-76
2021/09/08 01:19:00;;;;;;;14.40;12.90;;;21.10;66.30;;;;;;5115098;28;20467;-76
2021/09/08 01:21:27;;;;;;;16.33;13.13;;;21.00;66.40;;;;;;5114983;28;20955;-76
2021/09/08 01:23:55;;;;;;;13.70;12.30;;;21.00;66.60;;;;;;5115041;28;20443;-76
2021/09/08 01:26:21;;;;;;;13.43;12.03;;;21.00;66.70;;;;;;5115049;28;20445;-76
2021/09/08 01:28:48;;;;;;;14.57;13.07;;;21.00;66.80;;;;;;5114949;28;20471;-76
2021/09/08 01:31:17;;;;;;;14.43;11.83;;;20.90;66.70;;;;;;5114579;28;20479;-76
2021/09/08 01:33:44;;;;;;;15.60;13.20;;;20.90;66.80;;;;;;5114897;28;20453;-76
2021/09/08 01:36:11;;;;;;;13.83;12.47;;;20.90;66.90;;;;;;5114755;28;20447;-76
2021/09/08 01:38:38;;;;;;;16.50;13.50;;;20.90;66.90;;;;;;5114407;28;21004;-76
2021/09/08 01:41:06;;;;;;;13.47;12.07;;;20.90;67.00;;;;;;5114712;28;20439;-76
2021/09/08 01:43:32;;;;;;;12.80;11.60;;;20.80;66.90;;;;;;5114713;28;20450;-76
2021/09/08 01:45:59;;;;;;;12.70;11.40;;;20.80;67.00;;;;;;5114702;28;20451;-76
2021/09/08 01:48:26;;;;;;;13.97;12.50;;;20.80;67.20;;;;;;5114548;28;20470;-76
2021/09/08 01:50:53;;;;;;;13.67;12.20;;;20.70;67.10;;;;;;5114496;28;20487;-76
2021/09/08 01:53:19;;;;;;;12.93;11.73;;;20.70;67.30;;;;;;5114533;28;20446;-76
2021/09/08 01:55:47;;;;;;;13.13;11.90;;;20.70;67.50;;;;;;5114494;28;20445;-76
2021/09/08 01:58:15;;;;;;;13.67;11.30;;;20.70;67.50;;;;;;5114382;28;20471;-76
2021/09/08 02:00:43;;;;;;;13.57;12.17;;;20.60;67.50;;;;;;5114704;28;20439;-76
2021/09/08 02:03:09;;;;;;;14.13;11.60;;;20.60;68.50;;;;;;5114424;28;20458;-76
2021/09/08 02:05:36;;;;;;;12.90;11.67;;;20.60;67.80;;;;;;5114346;28;20454;-76
2021/09/08 02:08:03;;;;;;;13.37;12.00;;;20.60;67.90;;;;;;5114447;28;20981;-76
2021/09/08 02:10:30;;;;;;;14.80;13.40;;;20.60;68.00;;;;;;5113394;28;20449;-76
2021/09/08 02:12:58;;;;;;;14.73;12.67;;;20.60;68.00;;;;;;5114188;28;20212;-76
2021/09/08 02:15:26;;;;;;;13.13;11.73;;;20.50;68.10;;;;;;5114254;28;20474;-76
2021/09/08 02:17:53;;;;;;;13.90;12.40;;;20.50;68.20;;;;;;5114125;28;20466;-76
2021/09/08 02:20:20;;;;;;;13.07;11.73;;;20.50;68.20;;;;;;5113474;28;20465;-76
2021/09/08 02:22:47;;;;;;;12.43;11.10;;;20.50;68.10;;;;;;5114227;28;20443;-76
2021/09/08 02:25:13;;;;;;;13.10;11.90;;;20.50;68.30;;;;;;5113779;28;20438;-76
2021/09/08 02:27:40;;;;;;;13.67;12.33;;;20.40;68.20;;;;;;5113914;28;20463;-76
2021/09/08 02:30:09;;;;;;;12.53;11.30;;;20.40;68.30;;;;;;5113884;28;20438;-76
2021/09/08 02:32:37;;;;;;;13.60;12.03;;;20.30;68.40;;;;;;5113654;28;20447;-76
2021/09/08 02:35:04;;;;;;;14.10;12.60;;;20.20;68.40;;;;;;5113903;28;20435;-76
2021/09/08 02:37:31;;;;;;;12.83;11.47;;;20.20;68.80;;;;;;5113789;28;20463;-76
2021/09/08 02:39:58;;;;;;;14.37;12.00;;;20.10;68.90;;;;;;5113849;28;20450;-76
2021/09/08 02:42:25;;;;;;;14.10;12.70;;;20.10;69.10;;;;;;5113837;28;20869;-76
2021/09/08 02:44:52;;;;;;;14.50;12.37;;;20.00;69.20;;;;;;5113824;28;20449;-76
2021/09/08 02:47:18;;;;;;;13.83;11.93;;;20.00;69.40;;;;;;5113934;28;20459;-76
2021/09/08 02:49:46;;;;;;;12.60;11.30;;;20.00;69.30;;;;;;5114739;28;20427;-76
2021/09/08 02:52:13;;;;;;;15.10;11.80;;;20.00;69.40;;;;;;5113827;28;20483;-76
2021/09/08 02:54:40;;;;;;;12.50;11.30;;;19.90;69.30;;;;;;5113797;28;20442;-76
2021/09/08 02:57:06;;;;;;;12.83;11.50;;;19.90;69.40;;;;;;5113612;28;20439;-76
2021/09/08 02:59:33;;;;;;;13.87;12.17;;;19.90;69.50;;;;;;5113701;28;20443;-76
2021/09/08 03:02:00;;;;;;;14.63;10.90;;;19.90;69.70;;;;;;5113650;28;20443;-76
2021/09/08 03:04:27;;;;;;;12.83;11.17;;;19.90;69.80;;;;;;5113612;28;20450;-76
2021/09/08 03:06:56;;;;;;;13.13;11.77;;;19.80;69.70;;;;;;5113567;28;20541;-76
2021/09/08 03:09:23;;;;;;;11.80;10.60;;;19.80;69.80;;;;;;5113626;28;20438;-76
2021/09/08 03:11:50;;;;;;;12.30;11.10;;;19.80;69.90;;;;;;5113587;28;20549;-76
2021/09/08 03:14:16;;;;;;;13.43;12.03;;;19.80;70.00;;;;;;5113245;28;20459;-76
2021/09/08 03:16:43;;;;;;;11.80;10.70;;;19.80;70.00;;;;;;5113512;28;20443;-76
2021/09/08 03:19:11;;;;;;;13.70;12.30;;;19.80;70.00;;;;;;5113145;28;20517;-76
2021/09/08 03:21:38;;;;;;;13.23;11.93;;;19.80;70.00;;;;;;5113512;28;20446;-76
2021/09/08 03:24:06;;;;;;;13.00;11.67;;;19.80;70.00;;;;;;5113127;28;20447;-76
2021/09/08 03:26:33;;;;;;;12.90;11.43;;;19.80;70.20;;;;;;5113362;28;20443;-76
2021/09/08 03:28:59;;;;;;;12.70;10.50;;;19.80;70.20;;;;;;5113377;28;20827;-76
2021/09/08 03:31:26;;;;;;;13.50;11.87;;;19.80;70.30;;;;;;5113801;28;20853;-76
2021/09/08 03:33:53;;;;;;;13.53;12.10;;;19.70;70.20;;;;;;5117296;28;20442;-76
2021/09/08 03:36:19;;;;;;;13.00;11.53;;;19.70;70.20;;;;;;5116927;28;20438;-76
2021/09/08 03:38:46;;;;;;;12.83;11.53;;;19.70;70.30;;;;;;5117201;28;20863;-76
2021/09/08 03:41:15;;;;;;;13.30;11.90;;;19.70;70.30;;;;;;5117082;28;20439;-76
2021/09/08 03:43:41;;;;;;;13.03;11.73;;;19.70;70.40;;;;;;5117047;28;20461;-76
2021/09/08 03:46:08;;;;;;;12.60;11.30;;;19.70;70.40;;;;;;5116977;28;20451;-76
2021/09/08 03:48:35;;;;;;;13.37;12.07;;;19.70;70.30;;;;;;5116863;28;20463;-76
2021/09/08 03:51:02;;;;;;;15.00;11.50;;;19.70;70.30;;;;;;5116864;28;20485;-76
2021/09/08 03:53:29;;;;;;;12.13;10.93;;;19.60;70.20;;;;;;5116537;28;20438;-75
2021/09/08 03:55:55;;;;;;;13.77;12.10;;;19.60;70.30;;;;;;5116894;28;20446;-76
2021/09/08 03:58:23;;;;;;;15.40;11.83;;;19.60;70.50;;;;;;5116844;28;20469;-76
2021/09/08 04:00:50;;;;;;;13.33;11.80;;;19.60;70.60;;;;;;5116678;28;20446;-76
2021/09/08 04:03:17;;;;;;;13.30;11.07;;;19.60;70.60;;;;;;5116697;28;20450;-76
2021/09/08 04:05:44;;;;;;;12.10;10.80;;;19.60;70.60;;;;;;5116295;28;20955;-76
2021/09/08 04:08:10;;;;;;;12.40;11.10;;;19.60;70.70;;;;;;5116460;28;20473;-76
2021/09/08 04:10:37;;;;;;;15.63;12.63;;;19.60;70.80;;;;;;5116289;27;20926;-76
2021/09/08 04:13:04;;;;;;;13.43;12.13;;;19.50;70.80;;;;;;5116330;28;20527;-76
2021/09/08 04:15:33;;;;;;;14.37;11.60;;;19.50;70.90;;;;;;5116711;28;20785;-76
2021/09/08 04:18:00;;;;;;;14.63;12.63;;;19.50;70.90;;;;;;5116539;28;20890;-76
2021/09/08 04:20:27;;;;;;;13.87;11.23;;;19.50;70.90;;;;;;5116678;28;20450;-76
2021/09/08 04:22:53;;;;;;;14.37;12.80;;;19.50;70.90;;;;;;5116284;28;20496;-76
2021/09/08 04:25:20;;;;;;;12.37;11.07;;;19.50;71.20;;;;;;5116237;28;20443;-76
2021/09/08 04:27:47;;;;;;;13.63;12.23;;;19.40;71.10;;;;;;5116131;28;20463;-76
2021/09/08 04:30:14;;;;;;;13.70;12.40;;;19.40;71.10;;;;;;5116150;28;20450;-76
2021/09/08 04:32:42;;;;;;;12.93;11.63;;;19.40;71.20;;;;;;5115781;28;20459;-76
2021/09/08 04:35:09;;;;;;;13.33;11.33;;;19.40;71.30;;;;;;5116054;28;20474;-76
2021/09/08 04:37:37;;;;;;;14.07;12.77;;;19.30;71.30;;;;;;5115648;28;20986;-76
2021/09/08 04:40:04;;;;;;;13.57;12.03;;;19.30;71.50;;;;;;5115941;28;20455;-76
2021/09/08 04:42:31;;;;;;;16.23;12.67;;;19.30;71.80;;;;;;5115981;28;20461;-75
2021/09/08 04:44:58;;;;;;;14.00;12.60;;;19.30;71.90;;;;;;5115106;28;20447;-75
2021/09/08 04:47:24;;;;;;;15.67;12.63;;;19.30;72.00;;;;;;5115702;28;20463;-75
2021/09/08 04:49:53;;;;;;;19.40;12.07;;;19.30;71.90;;;;;;5115757;28;20491;-76
2021/09/08 04:52:19;;;;;;;15.37;13.10;;;19.20;71.70;;;;;;5115668;28;20519;-76
2021/09/08 04:54:46;;;;;;;13.40;12.07;;;19.20;71.70;;;;;;5116516;28;20499;-76
2021/09/08 04:57:13;;;;;;;13.90;12.60;;;19.20;71.80;;;;;;5115534;28;20462;-76
2021/09/08 04:59:39;;;;;;;16.33;13.17;;;19.10;71.70;;;;;;5115525;28;20447;-76
2021/09/08 05:02:06;;;;;;;13.23;11.87;;;19.10;71.80;;;;;;5115539;28;20824;-75
2021/09/08 05:04:33;;;;;;;15.97;12.73;;;19.10;71.90;;;;;;5115401;28;20447;-75
2021/09/08 05:07:01;;;;;;;16.67;12.37;;;19.10;72.00;;;;;;5115288;28;20439;-75
2021/09/08 05:09:28;;;;;;;17.00;11.97;;;19.10;72.20;;;;;;5115423;28;20431;-75
2021/09/08 05:11:55;;;;;;;16.93;12.37;;;19.10;72.30;;;;;;5115271;28;20481;-75
2021/09/08 05:14:21;;;;;;;13.73;12.33;;;19.10;72.40;;;;;;5114849;28;20858;-75
2021/09/08 05:16:48;;;;;;;13.53;11.63;;;19.10;72.50;;;;;;5115187;28;20446;-75
2021/09/08 05:19:15;;;;;;;14.03;12.63;;;19.10;72.60;;;;;;5115079;28;20489;-75
2021/09/08 05:21:42;;;;;;;17.13;12.90;;;19.10;72.60;;;;;;5115100;28;20484;-75
2021/09/08 05:24:10;;;;;;;14.97;13.47;;;19.00;72.60;;;;;;5114794;28;20447;-75
2021/09/08 05:26:37;;;;;;;15.23;13.63;;;19.00;72.60;;;;;;5115086;28;20423;-75
2021/09/08 05:29:04;;;;;;;15.57;12.33;;;19.00;72.60;;;;;;5114959;28;20493;-75
2021/09/08 05:31:30;;;;;;;15.30;12.90;;;19.00;72.70;;;;;;5114500;28;20849;-75
2021/09/08 05:33:57;;;;;;;16.90;13.27;;;19.00;72.70;;;;;;5114925;28;20434;-75
2021/09/08 05:36:24;;;;;;;16.23;13.43;;;19.00;72.90;;;;;;5114684;28;20447;-75
2021/09/08 05:38:51;;;;;;;16.00;14.07;;;19.00;73.00;;;;;;5114799;28;20467;-75
2021/09/08 05:41:19;;;;;;;25.37;14.47;;;19.00;73.30;;;;;;5114635;28;20530;-76
2021/09/08 05:43:46;;;;;;;20.50;13.93;;;18.90;73.50;;;;;;5114100;28;20451;-76
2021/09/08 05:46:12;;;;;;;21.10;15.40;;;18.90;73.80;;;;;;5114508;28;20455;-75
2021/09/08 05:48:39;;;;;;;18.10;15.37;;;18.90;74.00;;;;;;5114333;28;20459;-75
2021/09/08 05:51:06;;;;;;;22.73;16.83;;;18.90;74.30;;;;;;5114484;28;20419;-75
2021/09/08 05:53:33;;;;;;;18.33;15.70;;;18.90;74.60;;;;;;5114523;28;20465;-75
2021/09/08 05:55:59;;;;;;;17.53;15.40;;;18.90;74.70;;;;;;5114038;28;20945;-75
2021/09/08 05:58:27;;;;;;;16.93;15.13;;;19.00;75.00;;;;;;5114311;28;20465;-75
2021/09/08 06:00:54;;;;;;;18.27;15.47;;;19.00;74.90;;;;;;5114113;28;20895;-76
2021/09/08 06:03:21;;;;;;;18.50;14.63;;;19.00;74.50;;;;;;5114297;28;20451;-75
2021/09/08 06:05:47;;;;;;;17.33;14.43;;;19.00;74.70;;;;;;5113888;28;20480;-76
2021/09/08 06:08:14;;;;;;;17.70;12.93;;;19.10;74.70;;;;;;5114490;28;20835;-75
2021/09/08 06:10:41;;;;;;;16.37;14.57;;;19.10;74.90;;;;;;5114186;28;20443;-75
2021/09/08 06:13:07;;;;;;;15.57;13.70;;;19.20;74.50;;;;;;5113903;28;20540;-75
2021/09/08 06:15:36;;;;;;;17.00;14.60;;;19.20;74.70;;;;;;5114157;28;20434;-76
2021/09/08 06:18:04;;;;;;;17.67;13.57;;;19.30;74.30;;;;;;5114007;28;20475;-76
2021/09/08 06:20:31;;;;;;;13.30;11.90;;;19.30;74.30;;;;;;5114124;28;20427;-75
2021/09/08 06:22:57;;;;;;;14.10;12.00;;;19.30;74.40;;;;;;5114047;28;20443;-76
2021/09/08 06:25:25;;;;;;;18.10;13.97;;;19.40;74.50;;;;;;5113981;28;20438;-76
2021/09/08 06:27:52;;;;;;;16.53;13.13;;;19.50;74.90;;;;;;5113923;28;20466;-76
2021/09/08 06:30:18;;;;;;;16.07;12.37;;;19.50;74.30;;;;;;5113679;28;20827;-76
2021/09/08 06:32:46;;;;;;;12.80;11.50;;;19.60;73.90;;;;;;5113803;28;20475;-76
2021/09/08 06:35:13;;;;;;;15.60;11.53;;;19.60;73.70;;;;;;5113575;28;20934;-75
2021/09/08 06:37:41;;;;;;;17.33;12.70;;;19.70;73.50;;;;;;5113845;28;20466;-76
2021/09/08 06:40:09;;;;;;;13.90;12.20;;;19.70;73.30;;;;;;5113791;28;20465;-76
2021/09/08 06:42:35;;;;;;;14.10;12.70;;;19.90;74.10;;;;;;5113876;28;20446;-75
2021/09/08 06:45:02;;;;;;;13.40;12.00;;;19.90;72.90;;;;;;5113465;28;20821;-75
2021/09/08 06:47:29;;;;;;;14.17;12.67;;;20.00;72.80;;;;;;5113695;28;20463;-76
2021/09/08 06:49:57;;;;;;;13.77;12.43;;;20.10;72.20;;;;;;5113759;28;20462;-76
2021/09/08 06:52:24;;;;;;;12.60;11.30;;;20.20;70.60;;;;;;5113665;28;20481;-76
2021/09/08 06:54:50;;;;;;;14.07;11.00;;;20.20;70.40;;;;;;5113363;28;20785;-75
2021/09/08 06:57:17;;;;;;;12.17;10.97;;;20.30;70.40;;;;;;5113646;28;20489;-75
2021/09/08 06:59:44;;;;;;;14.13;11.30;;;20.40;70.50;;;;;;5113770;28;20462;-76
2021/09/08 07:02:12;;;;;;;13.40;12.00;;;20.50;70.60;;;;;;5113640;28;20447;-75
2021/09/08 07:04:39;;;;;;;16.07;12.23;;;20.50;70.20;;;;;;5113597;28;20447;-75
2021/09/08 07:07:07;;;;;;;12.60;11.40;;;20.70;69.90;;;;;;5114885;28;20950;-76
2021/09/08 07:09:34;;;;;;;13.97;12.07;;;20.70;68.70;;;;;;5117693;28;20466;-76
2021/09/08 07:12:01;;;;;;;12.80;11.50;;;20.90;68.40;;;;;;5117583;28;20509;-75
2021/09/08 07:14:28;;;;;;;13.37;12.07;;;21.00;67.20;;;;;;5117322;28;20467;-76
2021/09/08 07:16:55;;;;;;;14.43;11.90;;;21.10;67.60;;;;;;5117463;28;20453;-75
2021/09/08 07:19:21;;;;;;;14.93;11.83;;;21.30;67.60;;;;;;5117220;28;20956;-75
2021/09/08 07:21:49;;;;;;;13.27;10.93;;;21.40;67.00;;;;;;5117460;28;20836;-76
2021/09/08 07:24:17;;;;;;;13.53;10.73;;;21.50;66.30;;;;;;5117130;28;20934;-76
2021/09/08 07:26:46;;;;;;;14.33;12.77;;;21.60;66.00;;;;;;5117378;28;20450;-75
2021/09/08 07:29:13;;;;;;;12.60;11.40;;;21.70;65.80;;;;;;5117178;28;20462;-76
2021/09/08 07:31:39;;;;;;;12.80;11.60;;;21.90;65.60;;;;;;5117188;28;20445;-75
2021/09/08 07:34:06;;;;;;;14.63;11.70;;;22.00;65.30;;;;;;5116902;28;20443;-75
2021/09/08 07:36:33;;;;;;;14.07;12.53;;;22.10;65.00;;;;;;5117184;28;20438;-76
2021/09/08 07:38:59;;;;;;;11.40;10.03;;;22.20;63.90;;;;;;5117057;28;20459;-76
2021/09/08 07:41:27;;;;;;;12.73;11.53;;;22.40;63.20;;;;;;5117058;28;20453;-76
2021/09/08 07:43:54;;;;;;;13.57;11.70;;;22.50;62.80;;;;;;5117129;28;20795;-76
2021/09/08 07:46:21;;;;;;;12.40;11.10;;;22.60;62.30;;;;;;5117002;28;20447;-75
2021/09/08 07:48:48;;;;;;;11.70;10.50;;;22.70;61.60;;;;;;5116828;28;20466;-76
2021/09/08 07:51:14;;;;;;;13.63;11.37;;;22.80;61.80;;;;;;5116876;28;20515;-76
2021/09/08 07:53:41;;;;;;;13.27;11.17;;;23.00;61.40;;;;;;5116757;28;20470;-76
2021/09/08 07:56:08;;;;;;;13.37;11.97;;;23.20;61.30;;;;;;5116805;28;20449;-76
2021/09/08 07:58:36;;;;;;;14.77;13.37;;;23.30;59.80;;;;;;5116743;28;20463;-76
2021/09/08 08:01:03;;;;;;;12.67;11.40;;;23.30;59.50;;;;;;5116681;28;20438;-76
2021/09/08 08:03:30;;;;;;;16.13;12.27;;;23.40;59.40;;;;;;5116661;28;20534;-76
2021/09/08 08:05:57;;;;;;;12.90;11.70;;;23.50;59.10;;;;;;5116621;28;20451;-76
2021/09/08 08:08:23;;;;;;;13.77;12.47;;;23.60;58.90;;;;;;5116498;28;20466;-76
2021/09/08 08:10:50;;;;;;;13.73;11.87;;;23.70;59.00;;;;;;5116188;28;20969;-76
2021/09/08 08:13:17;;;;;;;13.23;11.13;;;23.80;58.90;;;;;;5116196;28;20474;-76
2021/09/08 08:15:45;;;;;;;16.23;12.10;;;24.00;58.30;;;;;;5117483;28;20439;-76
2021/09/08 08:18:13;;;;;;;12.50;11.10;;;24.10;58.00;;;;;;5114964;28;20841;-76
2021/09/08 08:20:40;;;;;;;12.27;11.10;;;24.30;57.70;;;;;;5116345;28;20469;-76
2021/09/08 08:23:07;;;;;;;12.60;11.30;;;24.40;57.40;;;;;;5116304;28;20484;-76
2021/09/08 08:25:33;;;;;;;14.47;12.30;;;24.60;57.10;;;;;;5116236;28;20438;-76
2021/09/08 08:28:01;;;;;;;14.07;12.27;;;24.70;56.70;;;;;;5115809;28;20989;-76
2021/09/08 08:30:29;;;;;;;12.93;10.73;;;24.80;56.40;;;;;;5116210;28;20919;-76
2021/09/08 08:32:57;;;;;;;13.43;12.13;;;25.00;56.20;;;;;;5116014;27;20478;-76
2021/09/08 08:35:24;;;;;;;12.93;11.60;;;25.10;56.10;;;;;;5116001;28;20450;-76
2021/09/08 08:37:51;;;;;;;12.20;10.90;;;25.30;55.70;;;;;;5115924;28;20459;-76
2021/09/08 08:40:19;;;;;;;13.73;12.30;;;25.50;55.40;;;;;;5116010;28;20447;-76
2021/09/08 08:42:46;;;;;;;11.30;10.20;;;25.60;54.70;;;;;;5115882;28;20423;-76
2021/09/08 08:45:13;;;;;;;12.67;11.50;;;25.80;54.40;;;;;;5115895;28;20442;-76
2021/09/08 08:47:40;;;;;;;13.20;12.07;;;26.00;53.80;;;;;;5115712;28;20474;-76
2021/09/08 08:50:11;;;;;;;11.77;10.60;;;26.10;53.00;;;;;;5115743;28;20450;-76
2021/09/08 08:52:39;;;;;;;12.13;10.87;;;26.20;52.50;;;;;;5115355;28;20890;-76
2021/09/08 08:55:06;;;;;;;12.93;11.50;;;26.40;52.70;;;;;;5115647;28;20855;-76
2021/09/08 08:57:33;;;;;;;11.63;10.43;;;26.50;52.30;;;;;;5115551;28;20832;-76
2021/09/08 08:59:59;;;;;;;12.30;11.10;;;26.70;51.60;;;;;;5115572;28;20438;-76
2021/09/08 09:02:27;;;;;;;11.50;10.47;;;26.80;51.50;;;;;;5115483;28;20434;-76
2021/09/08 09:04:56;;;;;;;13.57;11.03;;;27.00;51.20;;;;;;5115443;28;20811;-76
2021/09/08 09:07:28;;;;;;;13.50;10.87;;;27.10;50.40;;;;;;5115318;28;20459;-76
2021/09/08 09:09:57;;;;;;;13.13;11.53;;;27.20;51.10;;;;;;5115410;28;20431;-76
2021/09/08 09:12:28;;;;;;;11.63;10.53;;;27.40;50.00;;;;;;5115301;28;20474;-75
2021/09/08 09:14:59;;;;;;;11.50;10.30;;;27.60;49.60;;;;;;5114959;28;20828;-76
2021/09/08 09:17:28;;;;;;;13.00;11.23;;;27.70;48.90;;;;;;5115207;28;20509;-76
2021/09/08 09:19:55;;;;;;;12.83;10.27;;;27.90;49.50;;;;;;5115183;28;20482;-76
2021/09/08 09:22:34;;;;;;;14.10;12.17;;;28.10;49.20;;;;;;5115198;28;20529;-76
2021/09/08 09:25:01;;;;;;;12.03;10.93;;;28.40;48.10;;;;;;5115155;28;20426;-76
2021/09/08 09:27:28;;;;;;;11.83;10.73;;;28.60;47.50;;;;;;5115016;28;20545;-76
2021/09/08 09:30:04;;;;;;;11.60;10.57;;;28.80;47.10;;;;;;5114589;28;20438;-76
2021/09/08 09:32:36;;;;;;;12.00;10.67;;;29.00;46.60;;;;;;5114933;28;20852;-76
2021/09/08 09:35:04;;;;;;;13.67;10.97;;;29.20;46.80;;;;;;5114958;28;20462;-76
2021/09/08 09:37:34;;;;;;;11.90;10.77;;;29.40;45.90;;;;;;5114755;28;20520;-76
2021/09/08 09:40:06;;;;;;;13.30;10.17;;;29.60;45.30;;;;;;5114847;28;20419;-76
2021/09/08 09:42:33;;;;;;;9.83;9.03;;;29.80;45.30;;;;;;5114776;27;20419;-76
2021/09/08 09:45:00;;;;;;;12.70;11.30;;;30.10;45.20;;;;;;5114632;28;20443;-76
2021/09/08 09:47:27;;;;;;;12.43;10.07;;;30.30;43.90;;;;;;5114636;28;20463;-76
2021/09/08 09:49:55;;;;;;;10.83;9.93;;;30.60;43.70;;;;;;5114678;28;20481;-76
2021/09/08 09:52:24;;;;;;;13.73;11.23;;;30.90;43.20;;;;;;5114537;28;20470;-76
2021/09/08 09:54:52;;;;;;;10.60;9.60;;;31.10;41.40;;;;;;5114281;28;20945;-76
2021/09/08 09:57:19;;;;;;;12.40;10.10;;;31.20;40.60;;;;;;5114462;28;20454;-76
2021/09/08 09:59:46;;;;;;;12.30;11.23;;;31.50;41.60;;;;;;5114430;28;20443;-76
2021/09/08 10:02:13;;;;;;;11.10;10.20;;;31.70;41.60;;;;;;5114400;28;20426;-76
2021/09/08 10:04:40;;;;;;;12.27;11.10;;;32.00;40.80;;;;;;5114319;28;20445;-76
2021/09/08 10:07:08;;;;;;;11.37;10.47;;;32.40;40.50;;;;;;5114225;28;20441;-76
2021/09/08 10:09:36;;;;;;;12.30;11.17;;;32.70;40.20;;;;;;5114263;28;20435;-76
2021/09/08 10:12:07;;;;;;;13.13;11.73;;;32.90;39.20;;;;;;5114181;28;20457;-75
2021/09/08 10:14:34;;;;;;;11.97;10.80;;;33.30;37.90;;;;;;5114067;28;20857;-76
2021/09/08 10:17:03;;;;;;;12.23;11.20;;;33.60;36.90;;;;;;5113835;28;20829;-76
2021/09/08 10:19:31;;;;;;;11.37;10.47;;;34.00;37.00;;;;;;5113850;28;20786;-76
2021/09/08 10:22:06;;;;;;;13.03;10.73;;;34.40;36.50;;;;;;5114085;28;20449;-76
2021/09/08 10:24:34;;;;;;;12.70;11.40;;;34.80;34.90;;;;;;5114164;28;20418;-76
2021/09/08 10:27:01;;;;;;;11.33;10.30;;;34.90;32.00;;;;;;5113927;28;20449;-76
2021/09/08 10:29:30;;;;;;;12.00;11.00;;;35.10;32.70;;;;;;5113981;28;20445;-76
2021/09/08 10:31:59;;;;;;;13.10;11.80;;;35.40;33.10;;;;;;5113944;28;20438;-76
2021/09/08 10:34:26;;;;;;;13.20;10.77;;;35.70;29.80;;;;;;5113532;28;20891;-76
2021/09/08 10:36:54;;;;;;;11.87;10.77;;;35.90;29.80;;;;;;5113924;28;20457;-76
2021/09/08 10:39:21;;;;;;;11.80;10.63;;;36.30;30.00;;;;;;5113862;28;20540;-76
2021/09/08 10:41:49;;;;;;;10.53;9.40;;;36.60;28.80;;;;;;5113080;28;20446;-76
2021/09/08 10:44:18;;;;;;;12.13;10.90;;;37.10;29.00;;;;;;5113900;28;20600;-76
2021/09/08 10:46:52;;;;;;;14.40;11.37;;;37.50;27.40;;;;;;5113484;28;20926;-76
2021/09/08 10:49:49;;;;;;;11.93;10.77;;;37.50;26.70;;;;;;5113819;28;20227;-76
2021/09/08 10:52:41;;;;;;;11.00;10.10;;;37.60;26.80;;;;;;5113752;28;20568;-76
2021/09/08 10:55:22;;;;;;;11.67;10.67;;;37.80;26.60;;;;;;5113573;28;20563;-76
2021/09/08 10:57:59;;;;;;;10.10;9.30;;;38.00;25.50;;;;;;5113714;28;20216;-76
2021/09/08 11:00:31;;;;;;;11.60;10.57;;;38.30;26.10;;;;;;5113716;28;20214;-76
2021/09/08 11:02:59;;;;;;;10.82;9.88;;;38.80;25.10;;;;;;5113728;28;20324;-76
2021/09/08 11:05:26;;;;;;;10.43;9.43;;;39.00;24.90;;;;;;5114541;28;20589;-76
2021/09/08 11:07:53;;;;;;;11.15;10.25;;;39.50;25.20;;;;;;5113353;28;20737;-76
2021/09/08 11:10:30;;;;;;;10.13;9.38;;;40.00;24.50;;;;;;5113675;28;20214;-76
2021/09/08 11:13:00;;;;;;;10.77;9.90;;;40.30;24.30;;;;;;5113338;28;20237;-76
2021/09/08 11:15:34;;;;;;;11.18;10.25;;;40.70;22.90;;;;;;5113613;28;20223;-76
2021/09/08 11:18:05;;;;;;;10.05;8.43;;;40.70;22.00;;;;;;5113557;28;20224;-76
2021/09/08 11:20:32;;;;;;;12.10;9.73;;;40.90;22.70;;;;;;5113667;28;20276;-77
2021/09/08 11:23:00;;;;;;;10.68;9.68;;;41.10;22.80;;;;;;5113426;28;20184;-76
2021/09/08 11:25:30;;;;;;;10.05;9.10;;;41.40;21.90;;;;;;5113557;28;20191;-76
2021/09/08 11:27:57;;;;;;;10.45;9.63;;;41.70;21.80;;;;;;5113400;28;20629;-76
2021/09/08 11:30:28;;;;;;;10.02;8.90;;;42.00;22.00;;;;;;5113431;28;20204;-76
2021/09/08 11:32:57;;;;;;;10.45;9.38;;;42.30;21.90;;;;;;5113033;28;20659;-76
2021/09/08 11:35:41;;;;;;;9.95;9.15;;;42.50;20.40;;;;;;5113338;28;20211;-76
2021/09/08 11:38:11;;;;;;;9.43;8.50;;;42.70;21.30;;;;;;5113336;28;20228;-76
2021/09/08 11:40:40;;;;;;;8.90;8.20;;;42.90;20.70;;;;;;5113282;28;20204;-76
2021/09/08 11:43:07;;;;;;;9.55;8.75;;;43.10;20.00;;;;;;5114103;28;20204;-76
2021/09/08 11:45:34;;;;;;;9.32;8.57;;;43.30;20.60;;;;;;5112980;28;20545;-76
2021/09/08 11:48:01;;;;;;;9.02;8.32;;;43.60;20.80;;;;;;5113257;28;20220;-76
2021/09/08 11:50:27;;;;;;;9.65;8.95;;;43.90;19.90;;;;;;5113217;28;20227;-76
2021/09/08 11:52:57;;;;;;;9.32;8.60;;;44.20;19.50;;;;;;5114104;28;20702;-76
2021/09/08 11:55:26;;;;;;;9.95;9.07;;;44.60;19.90;;;;;;5116989;28;20177;-76
2021/09/08 11:57:52;;;;;;;9.45;8.70;;;44.70;18.90;;;;;;5116472;28;20274;-76
2021/09/08 12:00:19;;;;;;;9.10;8.18;;;44.80;18.40;;;;;;5116843;28;20208;-76
2021/09/08 12:02:46;;;;;;;8.52;7.85;;;44.80;18.70;;;;;;5116723;28;20207;-76
2021/09/08 12:05:21;;;;;;;9.18;8.40;;;45.00;18.50;;;;;;5116756;28;20193;-76
2021/09/08 12:07:47;;;;;;;8.82;8.00;;;45.30;18.50;;;;;;5116585;28;20227;-76
2021/09/08 12:10:15;;;;;;;9.23;8.50;;;45.50;18.60;;;;;;5116279;28;20201;-76
2021/09/08 12:12:42;;;;;;;9.50;8.70;;;45.80;17.80;;;;;;5116430;28;20196;-76
2021/09/08 12:15:10;;;;;;;9.60;8.82;;;45.90;16.60;;;;;;5116621;28;20204;-76
2021/09/08 12:17:36;;;;;;;9.23;8.57;;;45.90;17.30;;;;;;5116523;28;20216;-76
2021/09/08 12:20:07;;;;;;;9.10;7.95;;;45.90;17.90;;;;;;5116355;28;20197;-76
2021/09/08 12:22:36;;;;;;;9.13;8.43;;;46.00;17.50;;;;;;5116177;28;20223;-76
2021/09/08 12:25:06;;;;;;;8.40;7.70;;;46.10;17.10;;;;;;5116165;28;20177;-76
2021/09/08 12:27:36;;;;;;;9.30;8.55;;;46.30;17.80;;;;;;5116070;28;20235;-76
2021/09/08 12:30:08;;;;;;;8.75;8.05;;;46.70;17.90;;;;;;5116247;28;20189;-76